Time;durP1;ratioP1;P1;durP2;ratioP2;P2;SDS_P1;SDS_P2;PMS_P1;PMS_P2;Temp;Humidity;BMP_temperature;BMP_pressure;BME280_temperature;BME280_humidity;BME280_pressure;Samples;Min_cycle;Max_cycle;Signal;HPM_P1;HPM_P2
2022/07/12 00:01:14;;;;;;;2.27;2.07;;;14.90;1.00;;;;;;5077046;28;20716;-82
2022/07/12 00:03:44;;;;;;;2.20;2.10;;;14.90;1.00;;;;;;5068653;28;20385;-82
2022/07/12 00:06:10;;;;;;;5.00;2.80;;;14.90;1.00;;;;;;5070752;28;20380;-82
2022/07/12 00:08:37;;;;;;;3.00;2.50;;;14.80;1.00;;;;;;5066317;28;20566;-82
2022/07/12 00:11:14;;;;;;;2.33;2.13;;;14.80;1.00;;;;;;5063376;28;20417;-82
2022/07/12 00:13:44;;;;;;;2.20;2.00;;;14.70;1.00;;;;;;5067019;28;20446;-82
2022/07/12 00:16:38;;;;;;;2.30;2.10;;;14.70;1.00;;;;;;5062097;28;20415;-81
2022/07/12 00:19:04;;;;;;;3.30;1.97;;;14.60;1.00;;;;;;5074767;28;20458;-75
2022/07/12 00:21:29;;;;;;;3.00;2.23;;;14.60;1.00;;;;;;5076024;28;20412;-75
2022/07/12 00:24:09;;;;;;;2.50;2.30;;;14.60;1.00;;;;;;5076348;28;20167;-75
2022/07/12 00:26:35;;;;;;;2.37;2.20;;;14.50;1.00;;;;;;5074771;28;20179;-76
2022/07/12 00:29:00;;;;;;;2.33;2.20;;;14.50;1.00;;;;;;5076411;28;20893;-75
2022/07/12 00:31:32;;;;;;;2.37;2.17;;;14.50;1.00;;;;;;5072590;28;20474;-75
2022/07/12 00:33:58;;;;;;;2.47;2.27;;;14.50;1.00;;;;;;5066784;28;20683;-75
2022/07/12 00:36:26;;;;;;;5.23;2.30;;;14.50;1.00;;;;;;5057149;28;20491;-75
2022/07/12 00:38:56;;;;;;;2.40;2.20;;;14.40;1.00;;;;;;5065958;28;20645;-75
2022/07/12 00:41:22;;;;;;;2.80;2.03;;;14.50;1.00;;;;;;5076144;28;20418;-75
2022/07/12 00:43:48;;;;;;;2.30;2.07;;;14.30;1.00;;;;;;5076101;28;20413;-75
2022/07/12 00:46:17;;;;;;;3.23;2.20;;;14.40;1.00;;;;;;5074762;28;20516;-75
2022/07/12 00:48:44;;;;;;;2.47;2.27;;;14.30;1.00;;;;;;5076691;28;20202;-75
2022/07/12 00:51:10;;;;;;;3.60;2.60;;;14.20;1.00;;;;;;5073440;28;20407;-75
2022/07/12 00:53:36;;;;;;;3.07;2.40;;;14.20;1.00;;;;;;5070944;28;20431;-75
2022/07/12 00:56:04;;;;;;;2.67;2.47;;;14.20;1.00;;;;;;5062584;28;20175;-75
2022/07/12 00:58:39;;;;;;;2.67;2.37;;;14.20;1.00;;;;;;5075990;28;20776;-75
2022/07/12 01:01:09;;;;;;;2.60;2.40;;;14.20;1.00;;;;;;5061375;28;20495;-75
2022/07/12 01:03:35;;;;;;;4.67;2.50;;;14.10;1.00;;;;;;5075502;28;20400;-75
2022/07/12 01:06:02;;;;;;;3.00;2.50;;;14.20;1.00;;;;;;5075699;28;20431;-75
2022/07/12 01:08:29;;;;;;;3.00;2.70;;;14.10;1.00;;;;;;5075737;28;20383;-75
2022/07/12 01:10:56;;;;;;;3.40;2.90;;;14.10;1.00;;;;;;5075690;28;20461;-75
2022/07/12 01:13:26;;;;;;;2.73;2.50;;;14.10;1.00;;;;;;5075199;28;20454;-75
2022/07/12 01:15:53;;;;;;;4.70;2.40;;;14.00;1.00;;;;;;5075544;28;20829;-75
2022/07/12 01:18:38;;;;;;;3.30;2.90;;;14.00;1.00;;;;;;5075872;28;20422;-82
2022/07/12 01:21:19;;;;;;;2.50;2.27;;;14.00;1.00;;;;;;5064758;28;20388;-82
2022/07/12 01:23:57;;;;;;;6.03;2.50;;;13.90;1.00;;;;;;5064103;28;20388;-82
2022/07/12 01:26:27;;;;;;;4.20;2.30;;;13.90;1.00;;;;;;5065041;28;20474;-82
2022/07/12 01:29:02;;;;;;;4.70;3.00;;;13.80;1.00;;;;;;5071316;28;20863;-81
2022/07/12 01:31:35;;;;;;;7.17;2.93;;;13.80;1.00;;;;;;5067752;28;20396;-82
2022/07/12 01:34:02;;;;;;;2.93;2.53;;;13.80;1.00;;;;;;5075197;28;20448;-75
2022/07/12 01:36:29;;;;;;;3.10;2.80;;;13.80;1.00;;;;;;5075461;28;20368;-75
2022/07/12 01:38:56;;;;;;;3.20;2.40;;;13.80;1.00;;;;;;5073936;28;20388;-75
2022/07/12 01:41:23;;;;;;;2.53;2.33;;;13.80;1.00;;;;;;5075182;28;20438;-75
2022/07/12 01:43:50;;;;;;;2.70;2.50;;;13.80;1.00;;;;;;5075065;28;20396;-75
2022/07/12 01:46:20;;;;;;;3.33;2.53;;;13.70;1.00;;;;;;5075107;28;20456;-75
2022/07/12 01:48:46;;;;;;;3.47;2.90;;;13.70;1.00;;;;;;5075299;28;20748;-75
2022/07/12 01:51:11;;;;;;;4.87;2.13;;;13.70;1.00;;;;;;5073785;28;20407;-75
2022/07/12 01:53:37;;;;;;;4.30;2.83;;;13.70;1.00;;;;;;5055013;28;20195;-75
2022/07/12 01:56:06;;;;;;;3.17;2.70;;;13.60;1.00;;;;;;5068310;28;20167;-75
2022/07/12 01:58:32;;;;;;;4.30;2.80;;;13.60;1.00;;;;;;5061592;28;20199;-75
2022/07/12 02:01:10;;;;;;;5.17;3.47;;;13.60;1.00;;;;;;5074294;28;20494;-75
2022/07/12 02:03:50;;;;;;;2.53;2.33;;;13.60;1.00;;;;;;5063064;28;20411;-82
2022/07/12 02:06:50;;;;;;;2.13;2.03;;;13.50;1.00;;;;;;5066891;28;20432;-82
2022/07/12 02:09:32;;;;;;;2.97;2.77;;;13.50;1.00;;;;;;5071156;28;20384;-81
2022/07/12 02:11:58;;;;;;;3.13;2.83;;;13.40;1.00;;;;;;5074349;28;20801;-81
2022/07/12 02:14:26;;;;;;;7.43;2.63;;;13.40;1.00;;;;;;5065056;28;20429;-82
2022/07/12 02:17:44;;;;;;;4.93;2.50;;;13.50;1.00;;;;;;5054316;28;20236;-82
2022/07/12 02:20:38;;;;;;;3.37;2.73;;;13.30;1.00;;;;;;5067710;28;20405;-82
2022/07/12 02:23:08;;;;;;;6.83;2.83;;;13.30;1.00;;;;;;5066346;28;20445;-82
2022/07/12 02:25:44;;;;;;;2.80;2.60;;;13.30;1.00;;;;;;5062450;28;20417;-82
2022/07/12 02:28:38;;;;;;;4.50;2.83;;;13.20;1.00;;;;;;5072424;28;20390;-82
2022/07/12 02:34:25;;;;;;;2.50;2.30;;;13.20;1.00;;;;;;5067204;28;20476;-75
2022/07/12 02:36:51;;;;;;;2.80;2.60;;;13.20;1.00;;;;;;5060704;28;20417;-75
2022/07/12 02:39:26;;;;;;;2.60;2.40;;;13.20;1.00;;;;;;5074333;28;20198;-75
2022/07/12 02:41:52;;;;;;;7.33;2.43;;;13.20;1.00;;;;;;5074161;28;20178;-75
2022/07/12 02:44:18;;;;;;;2.77;2.57;;;13.20;1.00;;;;;;5073670;28;20751;-76
2022/07/12 02:46:44;;;;;;;2.57;2.37;;;13.10;1.00;;;;;;5074072;28;20163;-75
2022/07/12 02:49:14;;;;;;;3.67;2.40;;;13.20;1.00;;;;;;5072898;28;20756;-75
2022/07/12 02:51:44;;;;;;;7.60;2.50;;;13.10;1.00;;;;;;5060992;28;20475;-75
2022/07/12 02:54:14;;;;;;;2.97;2.77;;;13.00;1.00;;;;;;5072730;28;20452;-75
2022/07/12 02:56:40;;;;;;;4.70;2.80;;;13.00;1.00;;;;;;5053740;28;20433;-75
2022/07/12 02:59:08;;;;;;;7.13;3.07;;;13.00;1.00;;;;;;5054615;28;20389;-75
2022/07/12 03:01:34;;;;;;;4.43;2.33;;;13.00;1.00;;;;;;5073856;28;20173;-75
2022/07/12 03:04:14;;;;;;;2.67;2.47;;;13.00;1.00;;;;;;5074062;28;20396;-82
2022/07/12 03:06:44;;;;;;;3.30;3.00;;;12.90;1.00;;;;;;5073831;28;20220;-83
2022/07/12 03:09:32;;;;;;;6.77;2.63;;;12.90;1.00;;;;;;5058609;28;20864;-82
2022/07/12 03:11:58;;;;;;;2.50;2.40;;;12.90;1.00;;;;;;5064872;28;20386;-81
2022/07/12 03:14:23;;;;;;;3.50;3.00;;;12.90;1.00;;;;;;5055364;28;20462;-82
2022/07/12 03:17:08;;;;;;;3.00;2.70;;;12.90;1.00;;;;;;5066901;28;20181;-82
2022/07/12 03:19:44;;;;;;;3.73;2.60;;;12.90;1.00;;;;;;5074121;28;20159;-82
2022/07/12 03:22:20;;;;;;;6.50;2.70;;;12.90;1.00;;;;;;5073507;28;20412;-82
2022/07/12 03:25:32;;;;;;;2.40;2.20;;;12.90;1.00;;;;;;5059844;28;20392;-82
2022/07/12 03:27:57;;;;;;;2.90;2.70;;;12.80;1.00;;;;;;5060231;28;20450;-83
2022/07/12 03:30:27;;;;;;;2.70;2.50;;;12.80;1.00;;;;;;5063093;28;20459;-82
2022/07/12 03:33:08;;;;;;;2.80;2.60;;;12.80;1.00;;;;;;5066936;28;20186;-82
2022/07/12 03:35:35;;;;;;;5.33;2.70;;;12.80;1.00;;;;;;5081622;28;20453;-82
2022/07/12 03:38:20;;;;;;;2.60;2.40;;;12.70;1.00;;;;;;5059867;28;20869;-82
2022/07/12 03:40:56;;;;;;;2.60;2.40;;;12.70;1.00;;;;;;5060023;28;20508;-82
2022/07/12 03:46:44;;;;;;;4.93;3.10;;;12.70;1.00;;;;;;5063735;28;20371;-82
2022/07/12 03:49:15;;;;;;;3.13;2.80;;;12.70;1.00;;;;;;5068500;28;20426;-82
2022/07/12 03:51:50;;;;;;;2.73;2.23;;;12.70;1.00;;;;;;5059358;28;20274;-75
2022/07/12 03:54:20;;;;;;;5.50;2.60;;;12.70;1.00;;;;;;5069181;28;20899;-75
2022/07/12 03:59:39;;;;;;;3.07;2.80;;;12.80;1.00;;;;;;5064590;28;20390;-76
2022/07/12 04:02:04;;;;;;;3.17;2.83;;;12.70;1.00;;;;;;5069829;28;20470;-75
2022/07/12 04:04:56;;;;;;;7.50;2.80;;;12.80;1.00;;;;;;5063571;28;20497;-82
2022/07/12 04:07:50;;;;;;;4.43;2.47;;;12.70;1.00;;;;;;5053078;28;20639;-82
2022/07/12 04:10:26;;;;;;;3.90;2.87;;;12.80;1.00;;;;;;5066536;28;20411;-82
2022/07/12 04:12:52;;;;;;;4.70;2.77;;;12.70;1.00;;;;;;5064615;28;20426;-82
2022/07/12 04:15:20;;;;;;;3.33;2.63;;;12.70;1.00;;;;;;5065709;28;20458;-82
2022/07/12 04:17:50;;;;;;;3.00;2.80;;;12.90;1.00;;;;;;5053062;28;20179;-82
2022/07/12 04:20:26;;;;;;;3.27;2.97;;;12.70;1.00;;;;;;5064870;28;20575;-82
2022/07/12 04:23:09;;;;;;;3.03;2.73;;;12.90;1.00;;;;;;5066325;28;20420;-82
2022/07/12 04:26:02;;;;;;;2.60;2.40;;;12.80;1.00;;;;;;5064539;28;21021;-82
2022/07/12 04:28:28;;;;;;;3.87;2.23;;;12.90;1.00;;;;;;5064629;28;20398;-82
2022/07/12 04:30:56;;;;;;;2.70;2.53;;;12.90;1.00;;;;;;5054953;28;20385;-82
2022/07/12 04:34:08;;;;;;;4.47;2.70;;;12.90;1.00;;;;;;5063901;28;20266;-82
2022/07/12 04:36:34;;;;;;;2.50;2.30;;;13.00;1.00;;;;;;5062163;28;20418;-76
2022/07/12 04:39:03;;;;;;;3.00;2.70;;;13.10;1.00;;;;;;5064596;28;20421;-75
2022/07/12 04:41:33;;;;;;;3.33;2.40;;;13.20;1.00;;;;;;5076424;28;20250;-76
2022/07/12 04:44:04;;;;;;;2.83;2.50;;;13.20;1.00;;;;;;5073117;28;20498;-76
2022/07/12 04:46:29;;;;;;;2.53;2.40;;;13.20;1.00;;;;;;5068991;28;20920;-75
2022/07/12 04:48:55;;;;;;;3.23;2.70;;;13.20;1.00;;;;;;5073054;28;20453;-74
2022/07/12 04:51:21;;;;;;;2.87;2.67;;;13.30;1.00;;;;;;5066113;28;20646;-75
2022/07/12 04:53:48;;;;;;;2.30;2.10;;;13.40;1.00;;;;;;5071800;28;20434;-76
2022/07/12 04:56:26;;;;;;;2.37;2.17;;;13.50;1.00;;;;;;5071415;28;20159;-75
2022/07/12 04:58:56;;;;;;;9.13;2.50;;;13.60;1.00;;;;;;5070804;28;20428;-76
2022/07/12 05:01:45;;;;;;;7.27;3.13;;;13.60;1.00;;;;;;5060056;28;20419;-75
2022/07/12 05:04:26;;;;;;;6.10;2.93;;;13.70;1.00;;;;;;5072350;28;20395;-75
2022/07/12 05:07:08;;;;;;;2.77;2.47;;;13.80;1.00;;;;;;5058467;28;20867;-75
2022/07/12 05:09:38;;;;;;;2.87;2.67;;;13.90;1.00;;;;;;5069610;28;20862;-75
2022/07/12 05:12:04;;;;;;;4.87;2.87;;;14.00;1.00;;;;;;5068305;28;20417;-75
2022/07/12 05:14:30;;;;;;;4.40;3.00;;;14.10;1.00;;;;;;5056885;28;20435;-75
2022/07/12 05:17:20;;;;;;;3.43;2.77;;;14.20;1.00;;;;;;5075954;28;20496;-75
2022/07/12 05:19:56;;;;;;;3.57;2.70;;;14.40;1.00;;;;;;5068433;28;20187;-80
2022/07/12 05:22:32;;;;;;;2.93;2.73;;;14.50;1.00;;;;;;5074691;28;20417;-80
2022/07/12 05:25:08;;;;;;;5.07;2.70;;;14.60;1.00;;;;;;5058869;28;21018;-81
2022/07/12 05:27:50;;;;;;;3.60;2.73;;;14.70;1.00;;;;;;5067021;28;20930;-81
2022/07/12 05:30:33;;;;;;;3.47;2.90;;;14.90;1.00;;;;;;5059399;28;20817;-81
2022/07/12 05:33:02;;;;;;;3.13;2.67;;;15.00;1.00;;;;;;5064947;28;20512;-80
2022/07/12 05:42:44;;;;;;;3.87;2.60;;;15.50;1.00;;;;;;5065090;28;20422;-89
2022/07/12 05:54:50;;;;;;;3.57;2.60;;;16.20;1.00;;;;;;5071653;28;20494;-83
2022/07/12 05:57:44;;;;;;;5.80;3.13;;;16.40;1.00;;;;;;5074011;28;20744;-84
2022/07/12 06:00:56;;;;;;;3.30;3.00;;;16.60;1.00;;;;;;5071727;28;20410;-84
2022/07/12 06:03:32;;;;;;;6.53;3.43;;;16.70;1.00;;;;;;5061293;28;20425;-84
2022/07/12 06:05:59;;;;;;;4.37;3.47;;;16.90;1.00;;;;;;5059650;28;20396;-77
2022/07/12 06:08:25;;;;;;;3.50;3.20;;;17.10;1.00;;;;;;5077686;28;20415;-77
2022/07/12 06:11:02;;;;;;;5.37;3.60;;;17.30;1.00;;;;;;5073241;28;20421;-77
2022/07/12 06:13:28;;;;;;;8.60;3.23;;;17.50;1.00;;;;;;5074023;28;20967;-77
2022/07/12 06:15:59;;;;;;;5.20;2.93;;;17.60;1.00;;;;;;5081071;28;20471;-76
2022/07/12 06:18:36;;;;;;;4.90;2.57;;;17.80;1.00;;;;;;5076446;28;20495;-76
2022/07/12 06:21:08;;;;;;;3.23;2.90;;;18.10;1.00;;;;;;5073748;28;20781;-76
2022/07/12 06:23:44;;;;;;;4.00;3.10;;;18.30;1.00;;;;;;5074073;28;20412;-77
2022/07/12 06:26:14;;;;;;;4.17;2.63;;;18.60;1.00;;;;;;5073135;28;20431;-77
2022/07/12 06:28:41;;;;;;;5.50;2.43;;;18.70;1.00;;;;;;5073742;28;20423;-77
2022/07/12 06:31:06;;;;;;;2.30;2.10;;;18.90;1.00;;;;;;5081807;28;20420;-77
2022/07/12 06:33:32;;;;;;;3.83;2.77;;;19.00;1.00;;;;;;5064284;28;20423;-76
2022/07/12 06:39:50;;;;;;;1.87;1.77;;;19.40;1.00;;;;;;5054013;28;20225;-83
2022/07/12 06:42:38;;;;;;;2.17;2.07;;;19.60;1.00;;;;;;5073554;28;20434;-83
2022/07/12 06:45:14;;;;;;;3.77;2.23;;;19.80;1.00;;;;;;5076815;28;20404;-83
2022/07/12 06:47:40;;;;;;;1.77;1.67;;;19.90;1.00;;;;;;5069680;28;20420;-84
2022/07/12 06:50:08;;;;;;;2.93;2.00;;;20.00;1.00;;;;;;5053662;28;20503;-83
2022/07/12 06:52:56;;;;;;;2.50;1.90;;;20.10;1.00;;;;;;5054124;28;20173;-83
2022/07/12 06:55:44;;;;;;;2.67;2.47;;;20.30;1.00;;;;;;5056481;28;20514;-83
2022/07/12 06:58:44;;;;;;;4.30;2.23;;;20.50;1.00;;;;;;5061751;28;20448;-83
2022/07/12 07:01:10;;;;;;;2.20;2.10;;;20.60;1.00;;;;;;5053495;28;20392;-84
2022/07/12 07:04:08;;;;;;;8.20;1.90;;;20.80;1.00;;;;;;5070725;28;20947;-83
2022/07/12 07:06:38;;;;;;;1.70;1.60;;;21.00;1.00;;;;;;5065804;28;20170;-78
2022/07/12 07:09:07;;;;;;;3.47;2.20;;;21.10;1.00;;;;;;5068651;28;20428;-77
2022/07/12 07:11:34;;;;;;;2.17;2.07;;;21.20;1.00;;;;;;5072030;28;20411;-77
2022/07/12 07:14:00;;;;;;;3.70;1.90;;;21.30;1.00;;;;;;5071968;28;20467;-77
2022/07/12 07:16:26;;;;;;;2.20;2.10;;;21.40;1.00;;;;;;5069876;28;20482;-77
2022/07/12 07:18:52;;;;;;;3.00;1.63;;;21.60;1.00;;;;;;5061682;28;20513;-77
2022/07/12 07:21:17;;;;;;;1.73;1.63;;;21.70;1.00;;;;;;5073081;28;20211;-76
2022/07/12 07:23:51;;;;;;;1.90;1.80;;;21.80;1.00;;;;;;5073790;28;20262;-77
2022/07/12 07:26:21;;;;;;;1.77;1.67;;;21.90;1.00;;;;;;5074143;28;20174;-77
2022/07/12 07:31:39;;;;;;;6.90;1.73;;;22.20;1.00;;;;;;5055931;28;20666;-77
2022/07/12 07:34:05;;;;;;;1.87;1.70;;;22.30;1.00;;;;;;5070500;28;20454;-77
2022/07/12 07:36:31;;;;;;;1.80;1.70;;;22.40;1.00;;;;;;5051223;28;20956;-77
2022/07/12 07:38:58;;;;;;;4.50;1.40;;;22.50;1.00;;;;;;5068300;28;20414;-84
2022/07/12 07:41:32;;;;;;;2.30;1.57;;;22.70;1.00;;;;;;5070994;28;20184;-82
2022/07/12 07:44:02;;;;;;;1.60;1.50;;;22.80;1.00;;;;;;5069364;28;21002;-82
2022/07/12 07:46:28;;;;;;;1.90;1.80;;;22.80;1.00;;;;;;5073303;28;20414;-83
2022/07/12 07:48:54;;;;;;;1.60;1.50;;;22.90;1.00;;;;;;5057473;28;20518;-82
2022/07/12 07:51:20;;;;;;;1.53;1.43;;;23.00;1.00;;;;;;5063417;28;20267;-82
2022/07/12 07:53:45;;;;;;;3.70;1.27;;;23.10;1.00;;;;;;5072126;28;20192;-76
2022/07/12 07:56:11;;;;;;;1.60;1.50;;;23.30;1.00;;;;;;5060162;28;20658;-77
2022/07/12 07:58:38;;;;;;;2.83;1.77;;;23.30;1.00;;;;;;5070795;28;20537;-77
2022/07/12 08:01:04;;;;;;;1.40;1.30;;;23.40;1.00;;;;;;5070011;28;20646;-76
2022/07/12 08:03:30;;;;;;;3.77;1.60;;;23.40;1.00;;;;;;5071707;28;20416;-77
2022/07/12 08:05:57;;;;;;;4.20;1.67;;;23.40;1.00;;;;;;5072046;28;20194;-77
2022/07/12 08:08:23;;;;;;;1.40;1.40;;;23.50;1.00;;;;;;5072267;28;20626;-80
2022/07/12 08:10:50;;;;;;;1.70;1.60;;;23.50;1.00;;;;;;5072959;28;20408;-91
2022/07/12 08:13:16;;;;;;;1.67;1.57;;;23.60;1.00;;;;;;5072273;28;20974;-77
2022/07/12 08:15:42;;;;;;;3.10;1.70;;;23.70;1.00;;;;;;5058696;28;20467;-89
2022/07/12 08:18:07;;;;;;;6.00;1.87;;;23.80;1.00;;;;;;5056540;28;20173;-89
2022/07/12 08:20:33;;;;;;;2.37;2.17;;;23.90;1.00;;;;;;5088864;28;20190;-89
2022/07/12 08:22:59;;;;;;;2.80;2.30;;;23.90;1.00;;;;;;5071249;28;20202;-81
2022/07/12 08:25:24;;;;;;;1.67;1.57;;;24.10;1.00;;;;;;5056733;28;20487;-80
2022/07/12 08:27:50;;;;;;;2.87;1.53;;;24.20;1.00;;;;;;5067095;28;20537;-80
2022/07/12 08:30:16;;;;;;;1.40;1.30;;;24.10;1.00;;;;;;5075580;28;20185;-81
2022/07/12 08:32:45;;;;;;;1.40;1.40;;;24.00;1.00;;;;;;5075265;28;20182;-81
2022/07/12 08:35:10;;;;;;;1.00;1.00;;;24.00;1.00;;;;;;5075401;28;20243;-80
2022/07/12 08:37:37;;;;;;;3.93;1.90;;;23.90;1.00;;;;;;5072957;28;20863;-79
2022/07/12 08:40:05;;;;;;;2.23;1.30;;;23.80;1.00;;;;;;5066244;28;20178;-91
2022/07/12 08:42:31;;;;;;;1.60;1.50;;;23.90;1.00;;;;;;5076045;28;20409;-79
2022/07/12 08:44:58;;;;;;;1.20;1.20;;;24.00;1.00;;;;;;5072643;28;20425;-79
2022/07/12 08:47:24;;;;;;;2.70;1.20;;;24.20;1.00;;;;;;5059322;28;20413;-80
2022/07/12 08:50:10;;;;;;;1.00;1.00;;;24.40;1.00;;;;;;5062038;28;20461;-80
2022/07/12 08:52:43;;;;;;;1.60;0.90;;;24.80;1.00;;;;;;5059824;28;20988;-79
2022/07/12 08:55:28;;;;;;;2.07;1.17;;;25.20;1.00;;;;;;5067857;28;20461;-80
2022/07/12 08:57:55;;;;;;;1.10;1.03;;;25.70;1.00;;;;;;5086593;28;20846;-80
2022/07/12 09:00:22;;;;;;;3.17;0.90;;;26.10;1.00;;;;;;5065196;28;20473;-80
2022/07/12 09:02:52;;;;;;;1.07;0.97;;;26.40;1.00;;;;;;5054965;28;20483;-80
2022/07/12 09:05:26;;;;;;;1.00;1.00;;;26.70;1.00;;;;;;5064086;28;20424;-80
2022/07/12 09:08:04;;;;;;;1.47;1.10;;;26.80;1.00;;;;;;5074884;28;20442;-80
2022/07/12 09:10:31;;;;;;;1.47;1.00;;;26.90;1.00;;;;;;5075241;28;20423;-85
2022/07/12 09:12:56;;;;;;;1.13;1.13;;;27.10;1.00;;;;;;5068831;28;20446;-85
2022/07/12 09:15:23;;;;;;;1.37;1.07;;;27.10;1.00;;;;;;5064108;28;20874;-85
2022/07/12 09:17:59;;;;;;;2.27;0.80;;;27.10;1.00;;;;;;5061445;28;20183;-84
2022/07/12 09:20:38;;;;;;;1.07;0.90;;;26.90;1.00;;;;;;5068571;28;20965;-85
2022/07/12 09:23:09;;;;;;;0.90;0.90;;;27.00;1.00;;;;;;5074890;28;20933;-85
2022/07/12 09:25:36;;;;;;;1.57;0.90;;;26.90;1.00;;;;;;5062136;28;20406;-80
2022/07/12 09:28:08;;;;;;;1.13;0.90;;;27.00;1.00;;;;;;5074243;28;20417;-80
2022/07/12 09:30:38;;;;;;;0.80;0.80;;;27.10;1.00;;;;;;5071472;28;20464;-80
2022/07/12 09:36:15;;;;;;;1.20;0.87;;;26.80;1.00;;;;;;5066923;28;20418;-80
2022/07/12 09:38:52;;;;;;;1.17;0.80;;;26.50;1.00;;;;;;5068267;28;20520;-80
2022/07/12 09:41:20;;;;;;;1.63;0.90;;;26.30;1.00;;;;;;5071559;28;20424;-80
2022/07/12 09:43:45;;;;;;;1.00;1.00;;;26.30;1.00;;;;;;5073051;28;20433;-79
2022/07/12 09:46:16;;;;;;;2.10;0.90;;;26.10;1.00;;;;;;5072301;28;20441;-79
2022/07/12 09:48:44;;;;;;;1.00;1.00;;;26.10;1.00;;;;;;5065066;28;20180;-79
2022/07/12 09:51:13;;;;;;;0.80;0.80;;;26.10;1.00;;;;;;5073762;28;20415;-80
2022/07/12 09:53:44;;;;;;;1.30;1.07;;;26.20;1.00;;;;;;5072193;28;20547;-80
2022/07/12 09:56:12;;;;;;;0.80;0.80;;;26.30;1.00;;;;;;5055327;28;20458;-79
2022/07/12 09:58:51;;;;;;;7.70;0.90;;;26.50;1.00;;;;;;5059718;28;20504;-80
2022/07/12 10:01:17;;;;;;;1.17;1.00;;;26.70;1.00;;;;;;5073716;28;20445;-79
2022/07/12 10:03:45;;;;;;;3.80;1.00;;;26.90;1.00;;;;;;5074402;28;20508;-79
2022/07/12 10:06:30;;;;;;;2.87;1.00;;;26.90;1.00;;;;;;5073472;28;20414;-79
2022/07/12 10:08:57;;;;;;;2.67;1.17;;;27.00;1.00;;;;;;5055261;28;20497;-85
2022/07/12 10:11:33;;;;;;;1.63;1.00;;;27.10;1.00;;;;;;5058828;28;20410;-85
2022/07/12 10:13:59;;;;;;;3.53;0.90;;;27.20;1.00;;;;;;5061501;28;20469;-85
2022/07/12 10:16:44;;;;;;;0.70;0.70;;;27.10;1.00;;;;;;5083964;28;20441;-85
2022/07/12 10:19:24;;;;;;;0.90;0.80;;;27.10;1.00;;;;;;5060858;28;20183;-84
2022/07/12 10:22:04;;;;;;;1.10;1.00;;;27.20;1.00;;;;;;5065057;28;20407;-84
2022/07/12 10:24:46;;;;;;;1.13;0.90;;;27.10;1.00;;;;;;5072570;28;20510;-80
2022/07/12 10:27:50;;;;;;;0.90;0.90;;;27.10;1.00;;;;;;5059329;28;20813;-80
2022/07/12 10:30:45;;;;;;;0.80;0.80;;;27.00;1.00;;;;;;5073283;28;20948;-80
2022/07/12 10:33:26;;;;;;;0.97;0.70;;;27.00;1.00;;;;;;5079628;28;20829;-80
2022/07/12 10:36:06;;;;;;;0.90;0.90;;;27.10;1.00;;;;;;5059684;28;20461;-80
2022/07/12 10:38:33;;;;;;;0.80;0.80;;;27.20;1.00;;;;;;5082126;28;20427;-81
2022/07/12 10:41:18;;;;;;;0.90;0.90;;;27.40;1.00;;;;;;5074565;28;20425;-79
2022/07/12 10:46:28;;;;;;;0.87;0.87;;;27.40;1.00;;;;;;5062738;28;20926;-78
2022/07/12 10:49:29;;;;;;;0.70;0.70;;;27.30;1.00;;;;;;5072979;28;20419;-90
2022/07/12 10:52:10;;;;;;;3.70;0.90;;;27.30;1.00;;;;;;5067778;28;20175;-82
2022/07/12 10:54:39;;;;;;;1.00;0.80;;;27.20;1.00;;;;;;5060355;28;20557;-81
2022/07/12 10:57:05;;;;;;;4.23;0.90;;;27.30;1.00;;;;;;5063953;28;20881;-83
2022/07/12 10:59:35;;;;;;;0.73;0.70;;;27.30;1.00;;;;;;5065710;28;20443;-82
2022/07/12 11:02:01;;;;;;;2.10;0.87;;;27.50;1.00;;;;;;5067199;28;20781;-83
2022/07/12 11:04:27;;;;;;;1.43;0.80;;;27.50;1.00;;;;;;5065653;28;20439;-82
2022/07/12 11:06:56;;;;;;;0.80;0.80;;;27.60;1.00;;;;;;5072898;28;20501;-82
2022/07/12 11:09:23;;;;;;;0.90;0.83;;;27.80;1.00;;;;;;5073083;28;20197;-78
2022/07/12 11:11:51;;;;;;;0.93;0.90;;;27.90;1.00;;;;;;5072701;28;20939;-78
2022/07/12 11:14:25;;;;;;;2.83;0.90;;;28.10;1.00;;;;;;5071846;28;21140;-78
2022/07/12 11:16:53;;;;;;;1.57;1.00;;;28.10;1.00;;;;;;5057827;28;20505;-78
2022/07/12 11:19:23;;;;;;;0.90;0.80;;;28.10;1.00;;;;;;5063058;28;20875;-77
2022/07/12 11:21:55;;;;;;;1.10;0.80;;;28.10;1.00;;;;;;5055757;28;20425;-77
2022/07/12 11:24:26;;;;;;;0.90;0.90;;;28.10;1.00;;;;;;5062778;28;20433;-82
2022/07/12 11:26:52;;;;;;;2.23;1.00;;;28.00;1.00;;;;;;5072512;28;20884;-82
2022/07/12 11:29:18;;;;;;;0.80;0.80;;;28.10;1.00;;;;;;5072328;28;20428;-82
2022/07/12 11:31:45;;;;;;;0.70;0.70;;;28.20;1.00;;;;;;5072671;28;20511;-82
2022/07/12 11:34:22;;;;;;;0.80;0.70;;;28.30;1.00;;;;;;5071872;28;20467;-82
2022/07/12 11:36:52;;;;;;;0.90;0.80;;;28.40;1.00;;;;;;5071505;28;20497;-82
2022/07/12 11:39:33;;;;;;;2.10;1.10;;;28.30;1.00;;;;;;5072244;28;20421;-82
2022/07/12 11:41:59;;;;;;;0.80;0.70;;;28.40;1.00;;;;;;5060660;28;20770;-77
2022/07/12 11:44:45;;;;;;;0.70;0.70;;;28.40;1.00;;;;;;5071820;28;20441;-77
2022/07/12 11:47:11;;;;;;;3.57;0.77;;;28.20;1.00;;;;;;5056436;28;20452;-77
2022/07/12 11:49:42;;;;;;;1.57;0.80;;;28.10;1.00;;;;;;5063154;28;20464;-77
2022/07/12 11:52:08;;;;;;;0.80;0.80;;;28.30;1.00;;;;;;5066773;28;20857;-77
2022/07/12 11:54:36;;;;;;;2.60;0.80;;;28.50;1.00;;;;;;5076608;28;20452;-81
2022/07/12 11:57:09;;;;;;;1.20;0.80;;;28.80;1.00;;;;;;5075825;28;20261;-77
2022/07/12 11:59:35;;;;;;;0.70;0.70;;;29.00;1.00;;;;;;5075793;28;20428;-77
2022/07/12 12:02:05;;;;;;;0.83;0.83;;;29.20;1.00;;;;;;5063090;28;20494;-77
2022/07/12 12:04:31;;;;;;;1.47;0.70;;;29.40;1.00;;;;;;5073941;28;20525;-77
2022/07/12 12:06:57;;;;;;;1.40;0.80;;;29.50;1.00;;;;;;5076077;28;20983;-77
2022/07/12 12:09:22;;;;;;;1.00;0.90;;;29.40;1.00;;;;;;5075960;28;20514;-77
2022/07/12 12:11:48;;;;;;;4.70;0.60;;;29.40;1.00;;;;;;5076309;28;20186;-78
2022/07/12 12:14:14;;;;;;;0.70;0.70;;;29.40;1.00;;;;;;5075367;28;20205;-77
2022/07/12 12:16:39;;;;;;;0.90;0.90;;;29.50;1.00;;;;;;5075951;28;20186;-77
2022/07/12 12:19:10;;;;;;;20.83;1.10;;;29.60;1.00;;;;;;5075196;28;20187;-77
2022/07/12 12:21:36;;;;;;;1.43;0.70;;;29.60;1.00;;;;;;5068042;28;20258;-77
2022/07/12 12:24:11;;;;;;;0.90;0.60;;;29.60;1.00;;;;;;5059444;28;20562;-77
2022/07/12 12:26:37;;;;;;;4.00;0.80;;;29.90;1.00;;;;;;5076176;28;20665;-81
2022/07/12 12:29:03;;;;;;;0.73;0.70;;;29.80;1.00;;;;;;5075499;28;20884;-81
2022/07/12 12:31:28;;;;;;;0.70;0.70;;;29.80;1.00;;;;;;5075600;28;20197;-82
2022/07/12 12:34:01;;;;;;;1.00;0.83;;;29.90;1.00;;;;;;5075106;28;20356;-81
2022/07/12 12:36:29;;;;;;;0.70;0.70;;;29.70;1.00;;;;;;5075606;28;20182;-82
2022/07/12 12:38:56;;;;;;;3.30;0.70;;;29.70;1.00;;;;;;5076994;28;20422;-82
2022/07/12 12:41:23;;;;;;;0.70;0.70;;;29.70;1.00;;;;;;5075832;28;20435;-82
2022/07/12 12:44:03;;;;;;;0.97;0.60;;;29.60;1.00;;;;;;5075142;28;20463;-81
2022/07/12 12:46:49;;;;;;;2.10;0.80;;;29.80;1.00;;;;;;5075400;28;20417;-82
2022/07/12 12:49:15;;;;;;;0.80;0.70;;;30.00;1.00;;;;;;5072819;28;20477;-81
2022/07/12 12:52:00;;;;;;;0.90;0.70;;;30.10;1.00;;;;;;5070706;28;20517;-81
2022/07/12 12:54:37;;;;;;;2.50;0.70;;;30.10;1.00;;;;;;5066781;28;20259;-82
2022/07/12 12:57:04;;;;;;;1.97;0.60;;;30.10;1.00;;;;;;5055618;28;20547;-78
2022/07/12 12:59:30;;;;;;;0.90;0.60;;;30.20;1.00;;;;;;5065963;28;20418;-77
2022/07/12 13:01:55;;;;;;;0.67;0.67;;;30.40;1.00;;;;;;5068483;28;20470;-77
2022/07/12 13:04:21;;;;;;;0.60;0.60;;;30.50;1.00;;;;;;5068999;28;20654;-77
2022/07/12 13:06:47;;;;;;;13.33;0.80;;;30.60;1.00;;;;;;5062696;28;20276;-75
2022/07/12 13:09:12;;;;;;;0.60;0.57;;;30.80;1.00;;;;;;5067394;28;20548;-74
2022/07/12 13:11:38;;;;;;;0.90;0.60;;;30.90;1.00;;;;;;5077650;28;20187;-75
2022/07/12 13:14:04;;;;;;;0.60;0.60;;;31.00;1.00;;;;;;5073575;28;20210;-70
2022/07/12 13:16:30;;;;;;;2.80;0.83;;;31.10;1.00;;;;;;5073229;28;20179;-70
2022/07/12 13:18:56;;;;;;;2.60;0.73;;;31.20;1.00;;;;;;5074469;28;20762;-70
2022/07/12 13:21:21;;;;;;;0.70;0.60;;;30.90;1.00;;;;;;5073624;28;20179;-76
2022/07/12 13:23:50;;;;;;;0.60;0.60;;;31.10;1.00;;;;;;5075542;28;20193;-85
2022/07/12 13:26:16;;;;;;;1.13;0.97;;;31.20;1.00;;;;;;5075188;28;20223;-73
2022/07/12 13:28:42;;;;;;;1.87;0.60;;;31.30;1.00;;;;;;5073939;28;20991;-74
2022/07/12 13:31:08;;;;;;;0.80;0.60;;;31.40;1.00;;;;;;5075145;28;20167;-73
2022/07/12 13:33:34;;;;;;;2.10;0.80;;;31.40;1.00;;;;;;5057337;28;20176;-73
2022/07/12 13:36:00;;;;;;;0.73;0.73;;;31.30;1.00;;;;;;5065895;28;20817;-73
2022/07/12 13:38:26;;;;;;;0.70;0.70;;;31.30;1.00;;;;;;5065393;28;20239;-73
2022/07/12 13:40:51;;;;;;;4.60;0.70;;;31.50;1.00;;;;;;5066081;28;20167;-73
2022/07/12 13:43:20;;;;;;;6.37;0.70;;;31.60;1.00;;;;;;5074573;28;20989;-75
2022/07/12 13:45:49;;;;;;;0.70;0.70;;;31.70;1.00;;;;;;5060729;28;20635;-73
2022/07/12 13:48:15;;;;;;;0.77;0.50;;;31.80;1.00;;;;;;5071610;28;20409;-67
2022/07/12 13:50:40;;;;;;;1.43;0.70;;;31.90;1.00;;;;;;5074928;28;20505;-76
2022/07/12 13:53:15;;;;;;;2.63;0.70;;;32.00;1.00;;;;;;5072542;28;20185;-77
2022/07/12 13:55:46;;;;;;;0.97;0.87;;;32.00;1.00;;;;;;5078380;28;20358;-67
2022/07/12 13:58:15;;;;;;;0.70;0.60;;;32.00;1.00;;;;;;5074253;28;20425;-72
2022/07/12 14:00:42;;;;;;;0.90;0.70;;;32.00;1.00;;;;;;5074236;28;20430;-72